createdAt,value
2023-12-30T00:01:40.904Z,81.78
2023-12-30T00:04:11.650Z,81.74
2023-12-30T00:06:45.004Z,81.76
2023-12-30T00:09:15.699Z,81.69
2023-12-30T00:11:46.339Z,81.50
2023-12-30T00:14:17.635Z,81.61
2023-12-30T00:16:48.257Z,81.56
2023-12-30T00:19:19.488Z,81.75
2023-12-30T00:21:53.332Z,81.97
2023-12-30T00:24:24.011Z,81.95
2023-12-30T00:26:54.861Z,81.97
2023-12-30T00:29:25.578Z,82.04
2023-12-30T00:31:56.538Z,82.10
2023-12-30T00:34:27.982Z,82.39
2023-12-30T00:37:01.341Z,82.47
2023-12-30T00:39:38.346Z,82.23
2023-12-30T00:42:09.167Z,82.13
2023-12-30T00:44:39.942Z,82.13
2023-12-30T00:47:10.766Z,82.16
2023-12-30T00:49:41.488Z,82.25
2023-12-30T00:52:14.981Z,82.11
2023-12-30T00:54:50.828Z,82.31
2023-12-30T00:57:22.216Z,82.47
2023-12-30T00:59:53.559Z,82.15
2023-12-30T01:02:24.436Z,81.96
2023-12-30T01:04:55.201Z,81.35
2023-12-30T01:07:28.637Z,81.28
2023-12-30T01:09:59.521Z,80.87
2023-12-30T01:12:30.564Z,81.22
2023-12-30T01:15:01.271Z,80.59
2023-12-30T01:17:32.833Z,80.69
2023-12-30T01:20:03.833Z,80.89
2023-12-30T01:22:37.164Z,81.15
2023-12-30T01:25:09.973Z,80.78
2023-12-30T01:27:40.817Z,80.98
2023-12-30T01:30:12.136Z,81.38
2023-12-30T01:32:42.992Z,81.36
2023-12-30T01:35:16.319Z,81.42
2023-12-30T01:37:49.505Z,81.39
2023-12-30T01:40:20.274Z,81.79
2023-12-30T01:42:51.168Z,81.49
2023-12-30T01:45:22.115Z,81.29
2023-12-30T01:47:54.585Z,81.30
2023-12-30T01:50:25.844Z,81.46
2023-12-30T01:52:59.269Z,81.28
2023-12-30T01:55:30.290Z,81.16
2023-12-30T01:58:01.846Z,81.36
2023-12-30T02:00:35.826Z,81.57
2023-12-30T02:03:08.500Z,81.38
2023-12-30T02:05:40.009Z,81.06
2023-12-30T02:08:13.773Z,80.66
2023-12-30T02:10:45.243Z,80.37
2023-12-30T02:13:16.126Z,80.11
2023-12-30T02:15:46.991Z,80.15
2023-12-30T02:18:17.944Z,79.84
2023-12-30T02:20:49.074Z,79.61
2023-12-30T02:23:22.293Z,79.92
2023-12-30T02:25:53.249Z,80.21
2023-12-30T02:28:24.270Z,80.35
2023-12-30T02:30:55.238Z,80.56
2023-12-30T02:33:26.248Z,80.76
2023-12-30T02:35:57.751Z,80.97
2023-12-30T02:38:31.742Z,80.99
2023-12-30T02:41:02.525Z,80.66
2023-12-30T02:43:41.154Z,80.63
2023-12-30T02:46:11.838Z,80.42
2023-12-30T02:48:42.826Z,80.44
2023-12-30T02:51:18.657Z,80.74
2023-12-30T02:53:54.240Z,80.47
2023-12-30T02:56:26.398Z,80.52
2023-12-30T02:59:00.048Z,80.41
2023-12-30T03:01:34.034Z,80.37
2023-12-30T03:04:05.180Z,80.69
2023-12-30T03:06:36.855Z,80.71
2023-12-30T03:09:10.662Z,80.84
2023-12-30T03:11:43.585Z,81.06
2023-12-30T03:14:15.033Z,81.04
2023-12-30T03:16:47.697Z,80.93
2023-12-30T03:19:18.949Z,81.11
2023-12-30T03:21:49.820Z,81.34
2023-12-30T03:24:23.102Z,81.60
2023-12-30T03:26:54.618Z,81.98
2023-12-30T03:29:25.377Z,81.58
2023-12-30T03:31:57.302Z,81.96
2023-12-30T03:34:28.033Z,82.03
2023-12-30T03:36:59.016Z,81.86
2023-12-30T03:39:32.732Z,82.23
2023-12-30T03:42:03.639Z,82.24
2023-12-30T03:44:34.946Z,82.20
2023-12-30T03:47:05.737Z,81.78
2023-12-30T03:49:36.705Z,81.68
2023-12-30T03:52:08.286Z,81.47
2023-12-30T03:54:42.086Z,81.79
2023-12-30T03:57:12.712Z,81.74
2023-12-30T03:59:43.526Z,81.77
2023-12-30T04:02:14.123Z,81.85
2023-12-30T04:04:45.113Z,81.80
2023-12-30T04:07:15.994Z,81.67
2023-12-30T04:09:49.531Z,82.03
2023-12-30T04:12:21.964Z,81.81
2023-12-30T04:14:52.748Z,82.08
2023-12-30T04:17:23.489Z,82.11
2023-12-30T04:19:54.477Z,82.31
2023-12-30T04:22:25.534Z,81.96
2023-12-30T04:24:58.979Z,81.86
2023-12-30T04:27:29.931Z,81.80
2023-12-30T04:30:00.777Z,81.85
2023-12-30T04:32:31.523Z,81.65
2023-12-30T04:35:02.361Z,81.97
2023-12-30T04:37:33.529Z,81.62
2023-12-30T04:40:08.334Z,81.59
2023-12-30T04:42:39.601Z,81.82
2023-12-30T04:45:14.184Z,81.77
2023-12-30T04:47:45.150Z,81.72
2023-12-30T04:50:16.269Z,81.62
2023-12-30T04:52:46.900Z,81.42
2023-12-30T04:55:20.395Z,81.50
2023-12-30T04:57:51.793Z,81.31
2023-12-30T05:00:23.944Z,81.33
2023-12-30T05:02:54.985Z,81.29
2023-12-30T05:05:26.066Z,81.00
2023-12-30T05:08:03.383Z,81.01
2023-12-30T05:10:39.354Z,81.09
2023-12-30T05:13:10.338Z,81.12
2023-12-30T05:15:40.969Z,81.21
2023-12-30T05:18:11.928Z,81.37
2023-12-30T05:20:42.577Z,81.14
2023-12-30T05:23:13.579Z,81.09
2023-12-30T05:25:59.303Z,80.98
2023-12-30T05:28:30.129Z,80.97
2023-12-30T05:31:03.450Z,80.88
2023-12-30T05:33:34.406Z,80.84
2023-12-30T05:36:05.233Z,80.52
2023-12-30T05:38:35.811Z,80.42
2023-12-30T05:41:10.609Z,80.02
2023-12-30T05:43:41.462Z,80.10
2023-12-30T05:46:17.940Z,79.79
2023-12-30T05:48:48.788Z,79.58
2023-12-30T05:51:22.330Z,79.67
2023-12-30T05:53:54.753Z,79.37
2023-12-30T05:56:28.936Z,79.50
2023-12-30T05:58:59.767Z,79.27
2023-12-30T06:01:33.092Z,79.31
2023-12-30T06:04:06.056Z,79.48
2023-12-30T06:06:39.359Z,79.12
2023-12-30T06:09:10.276Z,79.23
2023-12-30T06:11:43.563Z,79.54
2023-12-30T06:14:14.320Z,79.41
2023-12-30T06:16:47.540Z,79.47
2023-12-30T06:19:18.424Z,80.04
2023-12-30T06:21:51.763Z,80.10
2023-12-30T06:24:24.022Z,80.31
2023-12-30T06:26:57.375Z,80.28
2023-12-30T06:29:33.291Z,80.07
2023-12-30T06:32:05.221Z,80.03
2023-12-30T06:34:36.313Z,80.08
2023-12-30T06:37:08.213Z,80.38
2023-12-30T06:39:39.127Z,80.51
2023-12-30T06:42:12.427Z,80.50
2023-12-30T06:44:45.349Z,80.22
2023-12-30T06:47:17.118Z,80.26
2023-12-30T06:49:48.141Z,80.36
2023-12-30T06:52:22.403Z,80.46
2023-12-30T06:55:02.979Z,80.30
2023-12-30T06:57:46.504Z,80.35
2023-12-30T07:00:17.822Z,80.14
2023-12-30T07:02:48.891Z,80.32
2023-12-30T07:05:20.341Z,80.20
2023-12-30T07:07:51.037Z,80.22
2023-12-30T07:10:22.244Z,80.31
2023-12-30T07:12:55.633Z,80.32
2023-12-30T07:15:26.888Z,80.50
2023-12-30T07:17:59.114Z,80.37
2023-12-30T07:20:30.191Z,80.29
2023-12-30T07:23:03.606Z,80.69
2023-12-30T07:25:34.715Z,80.63
2023-12-30T07:28:08.683Z,80.68
2023-12-30T07:30:39.762Z,80.79
2023-12-30T07:33:10.710Z,80.62
2023-12-30T07:35:43.063Z,80.49
2023-12-30T07:38:13.690Z,80.24
2023-12-30T07:40:44.400Z,80.46
2023-12-30T07:43:17.880Z,80.34
2023-12-30T07:45:48.831Z,80.12
2023-12-30T07:48:22.522Z,80.28
2023-12-30T07:50:53.430Z,80.15
2023-12-30T07:53:24.248Z,80.05
2023-12-30T07:55:56.831Z,79.95
2023-12-30T07:58:33.276Z,79.88
2023-12-30T08:01:04.118Z,79.67
2023-12-30T08:03:35.737Z,79.48
2023-12-30T08:06:06.654Z,79.69
2023-12-30T08:08:37.259Z,79.45
2023-12-30T08:11:08.106Z,79.44
2023-12-30T08:13:41.589Z,79.50
2023-12-30T08:16:12.383Z,79.47
2023-12-30T08:18:44.992Z,79.76
2023-12-30T08:21:17.854Z,79.79
2023-12-30T08:23:48.797Z,79.53
2023-12-30T08:26:20.029Z,79.55
2023-12-30T08:28:56.195Z,79.38
2023-12-30T08:31:26.980Z,79.63
2023-12-30T08:33:57.750Z,79.72
2023-12-30T08:36:29.839Z,79.48
2023-12-30T08:39:00.550Z,79.61
2023-12-30T08:41:31.265Z,79.50
2023-12-30T08:44:08.779Z,79.50
2023-12-30T08:46:40.249Z,79.75
2023-12-30T08:49:11.340Z,79.72
2023-12-30T08:51:42.264Z,79.35
2023-12-30T08:54:13.186Z,79.20
2023-12-30T08:56:44.105Z,78.87
2023-12-30T08:59:17.352Z,79.02
2023-12-30T09:01:48.276Z,78.86
2023-12-30T09:04:19.233Z,78.86
2023-12-30T09:06:54.394Z,78.67
2023-12-30T09:09:25.491Z,78.67
2023-12-30T09:11:56.178Z,78.33
2023-12-30T09:14:29.628Z,78.36
2023-12-30T09:17:02.069Z,78.03
2023-12-30T09:19:32.947Z,78.00
2023-12-30T09:22:04.257Z,77.61
2023-12-30T09:24:35.108Z,77.62
2023-12-30T09:27:05.818Z,77.52
2023-12-30T09:29:39.090Z,77.99
2023-12-30T09:32:10.424Z,77.69
2023-12-30T09:34:44.226Z,77.57
2023-12-30T09:37:19.254Z,77.85
2023-12-30T09:39:50.215Z,77.81
2023-12-30T09:42:21.154Z,77.68
2023-12-30T09:44:54.733Z,77.42
2023-12-30T09:47:26.822Z,77.43
2023-12-30T09:49:57.837Z,77.33
2023-12-30T09:52:28.639Z,76.88
2023-12-30T09:54:59.759Z,76.91
2023-12-30T09:57:31.257Z,76.78
2023-12-30T10:00:08.220Z,77.00
2023-12-30T10:02:41.961Z,76.76
2023-12-30T10:05:14.402Z,76.54
2023-12-30T10:07:45.580Z,76.69
2023-12-30T10:10:43.854Z,76.68
2023-12-30T10:13:15.414Z,76.74
2023-12-30T10:15:51.727Z,76.66
2023-12-30T10:18:23.114Z,76.71
2023-12-30T10:20:53.996Z,76.38
2023-12-30T10:23:25.506Z,76.45
2023-12-30T10:25:56.564Z,76.39
2023-12-30T10:28:27.758Z,76.08
2023-12-30T10:31:07.107Z,76.47
2023-12-30T10:33:38.747Z,76.09
2023-12-30T10:36:13.116Z,76.16
2023-12-30T10:38:48.162Z,76.51
2023-12-30T10:41:19.220Z,76.19
2023-12-30T10:43:57.703Z,76.40
2023-12-30T10:46:31.964Z,76.03
2023-12-30T10:49:07.879Z,75.96
2023-12-30T10:51:40.424Z,76.13
2023-12-30T10:54:15.273Z,76.13
2023-12-30T10:56:49.406Z,75.95
2023-12-30T10:59:23.470Z,75.75
2023-12-30T11:01:57.427Z,75.96
2023-12-30T11:04:30.269Z,75.81
2023-12-30T11:07:05.848Z,75.95
2023-12-30T11:09:36.834Z,75.71
2023-12-30T11:12:09.058Z,75.82
2023-12-30T11:14:43.307Z,75.97
2023-12-30T11:17:37.330Z,76.28
2023-12-30T11:20:27.193Z,75.66
2023-12-30T11:23:01.287Z,75.73
2023-12-30T11:25:39.989Z,73.12
2023-12-30T11:28:21.833Z,75.58
2023-12-30T11:31:04.093Z,75.49
2023-12-30T11:33:39.909Z,75.58
2023-12-30T11:36:12.622Z,75.79
2023-12-30T11:38:49.352Z,75.86
2023-12-30T11:41:20.388Z,75.86
2023-12-30T11:43:51.508Z,75.17
2023-12-30T11:46:22.285Z,75.03
2023-12-30T11:48:55.782Z,75.49
2023-12-30T11:51:27.220Z,75.79
2023-12-30T11:53:58.563Z,75.41
2023-12-30T11:56:29.453Z,75.43
2023-12-30T11:59:01.540Z,75.54
2023-12-30T12:01:32.894Z,75.49
2023-12-30T12:04:06.278Z,75.58
2023-12-30T12:06:40.060Z,75.76
2023-12-30T12:09:11.731Z,75.62
2023-12-30T12:11:44.826Z,75.33
2023-12-30T12:14:17.510Z,75.44
2023-12-30T12:16:49.503Z,75.49
2023-12-30T12:19:22.999Z,75.55
2023-12-30T12:21:53.736Z,75.80
2023-12-30T12:24:32.288Z,75.77
2023-12-30T12:27:03.106Z,75.84
2023-12-30T12:29:33.781Z,76.18
2023-12-30T12:32:08.238Z,75.89
2023-12-30T12:34:42.566Z,76.23
2023-12-30T12:37:15.949Z,76.12
2023-12-30T12:39:50.002Z,76.14
2023-12-30T12:42:27.610Z,76.26
2023-12-30T12:45:01.840Z,76.23
2023-12-30T12:47:33.273Z,76.48
2023-12-30T12:50:07.473Z,76.34
2023-12-30T12:52:38.418Z,75.81
2023-12-30T12:55:14.290Z,75.89
2023-12-30T12:57:45.263Z,76.06
2023-12-30T13:00:19.588Z,75.41
2023-12-30T13:02:51.596Z,75.30
2023-12-30T13:05:25.498Z,74.98
2023-12-30T13:07:56.461Z,75.13
2023-12-30T13:10:39.573Z,75.31
2023-12-30T13:13:10.320Z,75.17
2023-12-30T13:15:41.243Z,75.47
2023-12-30T13:18:14.845Z,75.66
2023-12-30T13:20:49.187Z,75.25
2023-12-30T13:23:19.978Z,75.49
2023-12-30T13:25:50.957Z,75.38
2023-12-30T13:28:21.704Z,75.33
2023-12-30T13:30:52.920Z,75.57
2023-12-30T13:33:24.849Z,75.91
2023-12-30T13:36:07.623Z,76.01
2023-12-30T13:38:41.851Z,76.33
2023-12-30T13:41:12.257Z,74.08
2023-12-30T13:43:45.321Z,76.05
2023-12-30T13:46:34.975Z,76.42
2023-12-30T13:49:18.269Z,76.32
2023-12-30T13:51:56.942Z,76.49
2023-12-30T13:54:28.221Z,76.64
2023-12-30T13:57:12.215Z,76.63
2023-12-30T13:59:48.358Z,76.54
2023-12-30T14:02:20.101Z,76.92
2023-12-30T14:04:55.120Z,77.02
2023-12-30T14:07:30.325Z,77.09
2023-12-30T14:10:02.098Z,76.94
2023-12-30T14:12:32.744Z,77.02
2023-12-30T14:15:07.631Z,77.23
2023-12-30T14:17:38.554Z,77.53
2023-12-30T14:20:11.533Z,77.59
2023-12-30T14:22:45.660Z,77.49
2023-12-30T14:25:16.233Z,76.53
2023-12-30T14:27:46.888Z,77.44
2023-12-30T14:30:18.122Z,77.41
2023-12-30T14:32:49.160Z,77.63
2023-12-30T14:35:20.052Z,77.54
2023-12-30T14:37:53.546Z,77.55
2023-12-30T14:40:24.360Z,77.42
2023-12-30T14:42:56.157Z,77.63
2023-12-30T14:45:26.804Z,77.70
2023-12-30T14:47:57.796Z,77.42
2023-12-30T14:50:30.401Z,77.63
2023-12-30T14:53:11.999Z,77.73
2023-12-30T14:55:44.940Z,77.55
2023-12-30T14:58:19.213Z,77.71
2023-12-30T15:00:50.700Z,78.02
2023-12-30T15:03:21.619Z,77.65
2023-12-30T15:05:53.612Z,78.03
2023-12-30T15:08:26.905Z,77.77
2023-12-30T15:11:00.613Z,78.15
2023-12-30T15:13:31.925Z,77.93
2023-12-30T15:16:03.035Z,77.97
2023-12-30T15:18:35.391Z,78.06
2023-12-30T15:21:08.284Z,77.89
2023-12-30T15:23:43.913Z,78.05
2023-12-30T15:26:16.390Z,78.10
2023-12-30T15:28:47.258Z,78.07
2023-12-30T15:31:21.798Z,78.03
2023-12-30T15:33:58.475Z,78.15
2023-12-30T15:36:30.761Z,77.86
2023-12-30T15:39:05.069Z,77.92
2023-12-30T15:41:35.742Z,77.87
2023-12-30T15:44:07.174Z,77.81
2023-12-30T15:46:40.349Z,77.71
2023-12-30T15:49:13.341Z,77.75
2023-12-30T15:51:44.511Z,77.82
2023-12-30T15:54:18.651Z,77.89
2023-12-30T15:56:52.246Z,77.56
2023-12-30T15:59:25.740Z,78.01
2023-12-30T16:01:56.443Z,77.86
2023-12-30T16:04:27.275Z,77.89
2023-12-30T16:06:58.223Z,78.29
2023-12-30T16:09:31.772Z,78.32
2023-12-30T16:12:03.277Z,78.62
2023-12-30T16:14:36.806Z,78.59
2023-12-30T16:17:08.409Z,78.72
2023-12-30T16:19:39.289Z,78.97
2023-12-30T16:22:10.459Z,79.03
2023-12-30T16:24:43.844Z,78.94
2023-12-30T16:27:15.033Z,78.71
2023-12-30T16:29:47.495Z,78.79
2023-12-30T16:32:18.222Z,78.81
2023-12-30T16:34:49.084Z,78.48
2023-12-30T16:37:19.976Z,78.81
2023-12-30T16:39:54.161Z,78.80
2023-12-30T16:42:24.749Z,78.90
2023-12-30T16:44:55.513Z,78.67
2023-12-30T16:47:26.489Z,78.64
2023-12-30T16:49:58.107Z,78.39
2023-12-30T16:52:28.874Z,78.69
2023-12-30T16:55:04.036Z,78.74
2023-12-30T16:57:35.489Z,78.84
2023-12-30T17:00:10.317Z,78.73
2023-12-30T17:02:41.730Z,78.70
2023-12-30T17:05:13.757Z,78.99
2023-12-30T17:07:44.474Z,78.75
2023-12-30T17:10:17.749Z,78.92
2023-12-30T17:12:48.495Z,79.00
2023-12-30T17:15:19.425Z,79.02
2023-12-30T17:17:50.295Z,79.00
2023-12-30T17:20:20.935Z,79.01
2023-12-30T17:22:51.618Z,78.96
2023-12-30T17:25:24.945Z,79.03
2023-12-30T17:27:56.059Z,79.06
2023-12-30T17:30:26.982Z,78.96
2023-12-30T17:32:57.792Z,78.87
2023-12-30T17:35:28.948Z,78.92
2023-12-30T17:37:59.858Z,78.89
2023-12-30T17:40:34.984Z,78.79
2023-12-30T17:43:08.699Z,79.02
2023-12-30T17:45:39.571Z,78.83
2023-12-30T17:48:12.003Z,78.87
2023-12-30T17:50:46.727Z,78.80
2023-12-30T17:53:19.358Z,78.92
2023-12-30T17:55:52.739Z,78.91
2023-12-30T17:58:24.581Z,78.97
2023-12-30T18:00:55.988Z,79.11
2023-12-30T18:03:27.126Z,79.36
2023-12-30T18:05:57.773Z,79.56
2023-12-30T18:08:28.726Z,79.52
2023-12-30T18:11:05.807Z,79.75
2023-12-30T18:27:30.777Z,79.79
2023-12-30T18:30:01.510Z,80.35
2023-12-30T18:32:32.423Z,80.61
2023-12-30T18:35:05.296Z,80.86
2023-12-30T18:37:37.448Z,80.90
2023-12-30T18:40:17.752Z,80.90
2023-12-30T18:42:51.301Z,81.21
2023-12-30T18:45:22.196Z,81.19
2023-12-30T18:47:55.795Z,81.21
2023-12-30T18:50:26.918Z,81.23
2023-12-30T18:52:57.958Z,81.22
2023-12-30T18:55:28.850Z,81.07
2023-12-30T18:58:02.250Z,80.86
2023-12-30T19:00:33.130Z,80.74
2023-12-30T19:03:03.928Z,80.40
2023-12-30T19:05:34.829Z,80.29
2023-12-30T19:08:05.627Z,80.22
2023-12-30T19:10:37.140Z,79.77
2023-12-30T19:13:10.633Z,79.85
2023-12-30T19:15:41.861Z,79.79
2023-12-30T19:18:12.818Z,80.05
2023-12-30T19:20:43.587Z,79.88
2023-12-30T19:23:14.508Z,79.91
2023-12-30T19:25:45.313Z,79.92
2023-12-30T19:28:18.687Z,79.92
2023-12-30T19:30:49.784Z,80.15
2023-12-30T19:33:20.513Z,80.37
2023-12-30T19:35:52.650Z,80.37
2023-12-30T19:38:23.846Z,80.27
2023-12-30T19:40:56.299Z,80.52
2023-12-30T19:43:29.832Z,80.25
2023-12-30T19:46:02.085Z,80.42
2023-12-30T19:48:32.803Z,80.42
2023-12-30T19:51:05.175Z,80.54
2023-12-30T19:53:36.846Z,80.53
2023-12-30T19:56:08.401Z,80.55
2023-12-30T19:58:41.945Z,80.42
2023-12-30T20:01:19.097Z,80.23
2023-12-30T20:03:52.674Z,80.48
2023-12-30T20:06:23.401Z,80.47
2023-12-30T20:08:54.130Z,80.27
2023-12-30T20:11:28.193Z,80.60
2023-12-30T20:14:02.035Z,80.61
2023-12-30T20:16:33.062Z,80.46
2023-12-30T20:19:03.812Z,80.53
2023-12-30T20:21:34.659Z,80.57
2023-12-30T20:24:05.387Z,80.95
2023-12-30T20:26:36.399Z,80.85
2023-12-30T20:29:09.547Z,81.21
2023-12-30T20:31:40.950Z,81.44
2023-12-30T20:34:11.622Z,81.61
2023-12-30T20:36:42.609Z,81.50
2023-12-30T20:39:14.267Z,81.56
2023-12-30T20:41:46.422Z,81.73
2023-12-30T20:44:20.556Z,81.69
2023-12-30T20:46:51.619Z,81.46
2023-12-30T20:49:22.272Z,81.60
2023-12-30T20:51:52.978Z,81.64
2023-12-30T20:54:23.715Z,81.60
2023-12-30T20:56:54.339Z,81.21
2023-12-30T20:59:27.680Z,80.89
2023-12-30T21:01:59.153Z,80.72
2023-12-30T21:04:30.249Z,80.80
2023-12-30T21:07:01.046Z,80.51
2023-12-30T21:09:33.612Z,80.16
2023-12-30T21:12:04.768Z,80.24
2023-12-30T21:14:38.151Z,80.08
2023-12-30T21:17:08.896Z,80.24
2023-12-30T21:19:39.758Z,80.19
2023-12-30T21:22:10.468Z,80.35
2023-12-30T21:24:41.339Z,80.51
2023-12-30T21:27:12.217Z,80.46
2023-12-30T21:29:49.208Z,80.63
2023-12-30T21:32:24.790Z,80.81
2023-12-30T21:34:57.129Z,81.09
2023-12-30T21:37:38.675Z,81.35
2023-12-30T21:40:15.635Z,81.06
2023-12-30T21:42:50.770Z,81.10
2023-12-30T21:45:25.290Z,81.20
2023-12-30T21:47:56.620Z,81.35
2023-12-30T21:50:28.519Z,81.49
2023-12-30T21:53:00.529Z,81.65
2023-12-30T21:55:35.347Z,81.67
2023-12-30T21:58:08.403Z,81.56
2023-12-30T22:00:43.617Z,81.50
2023-12-30T22:03:17.303Z,81.21
2023-12-30T22:05:54.227Z,81.01
2023-12-30T22:08:28.390Z,80.93
2023-12-30T22:11:00.316Z,80.88
2023-12-30T22:13:35.097Z,80.57
2023-12-30T22:16:12.658Z,80.58
2023-12-30T22:18:44.398Z,80.33
2023-12-30T22:21:16.131Z,80.36
2023-12-30T22:23:48.791Z,80.01
2023-12-30T22:26:21.708Z,80.04
2023-12-30T22:28:56.829Z,80.00
2023-12-30T22:31:34.012Z,80.12
2023-12-30T22:34:09.212Z,79.94
2023-12-30T22:36:43.002Z,79.86
2023-12-30T22:39:17.522Z,79.98
2023-12-30T22:41:49.099Z,79.78
2023-12-30T22:44:23.801Z,79.86
2023-12-30T22:47:00.885Z,80.28
2023-12-30T22:49:31.937Z,79.86
2023-12-30T22:52:03.315Z,80.20
2023-12-30T22:54:36.735Z,80.22
2023-12-30T22:57:13.282Z,80.39
2023-12-30T22:59:44.613Z,80.16
2023-12-30T23:02:24.894Z,80.47
2023-12-30T23:04:58.889Z,80.36
2023-12-30T23:07:30.824Z,80.32
2023-12-30T23:10:01.769Z,80.36
2023-12-30T23:12:32.766Z,80.57
2023-12-30T23:15:04.065Z,80.33
2023-12-30T23:17:37.919Z,80.40
2023-12-30T23:20:33.330Z,80.57
2023-12-30T23:23:05.694Z,80.49
2023-12-30T23:25:38.189Z,80.44
2023-12-30T23:28:09.461Z,80.20
2023-12-30T23:30:40.373Z,80.18
2023-12-30T23:33:13.845Z,80.21
2023-12-30T23:35:44.834Z,80.37
2023-12-30T23:38:15.481Z,80.28
2023-12-30T23:40:46.172Z,80.01
2023-12-30T23:43:17.337Z,80.33
2023-12-30T23:45:48.008Z,80.30
2023-12-30T23:48:21.379Z,80.19
2023-12-30T23:50:52.368Z,80.55
2023-12-30T23:53:22.935Z,80.20
2023-12-30T23:55:53.930Z,80.45
2023-12-30T23:58:24.958Z,80.27
